Time;durP1;ratioP1;P1;durP2;ratioP2;P2;SDS_P1;SDS_P2;PMS_P1;PMS_P2;Temp;Humidity;BMP_temperature;BMP_pressure;BME280_temperature;BME280_humidity;BME280_pressure;Samples;Min_cycle;Max_cycle;Signal;HPM_P1;HPM_P2
2022/12/26 00:00:55;;;;;;;11.57;7.23;;;5.70;81.90;;;;;;5054148;28;20178;-70
2022/12/26 00:03:21;;;;;;;12.67;7.60;;;5.70;81.90;;;;;;5069642;28;20260;-69
2022/12/26 00:05:47;;;;;;;10.90;7.90;;;5.70;82.00;;;;;;5073444;28;20975;-70
2022/12/26 00:08:13;;;;;;;13.20;7.63;;;5.70;82.20;;;;;;5072648;28;20186;-70
2022/12/26 00:10:38;;;;;;;16.37;7.70;;;5.60;82.20;;;;;;5071820;28;20189;-70
2022/12/26 00:13:04;;;;;;;14.10;7.90;;;5.60;81.80;;;;;;5069195;28;20653;-69
2022/12/26 00:15:30;;;;;;;17.53;7.90;;;5.60;81.70;;;;;;5072548;28;20368;-70
2022/12/26 00:17:55;;;;;;;11.13;7.10;;;5.50;82.00;;;;;;5074413;28;20363;-69
2022/12/26 00:20:21;;;;;;;12.10;7.60;;;5.50;81.90;;;;;;5068338;28;20183;-70
2022/12/26 00:22:47;;;;;;;14.47;8.63;;;5.50;82.10;;;;;;5076250;28;20304;-69
2022/12/26 00:25:12;;;;;;;12.33;7.77;;;5.50;82.30;;;;;;5067442;28;20569;-70
2022/12/26 00:27:38;;;;;;;11.20;6.73;;;5.50;82.40;;;;;;5070582;28;20218;-70
2022/12/26 00:30:04;;;;;;;12.47;7.33;;;5.50;82.50;;;;;;5072108;28;21044;-69
2022/12/26 00:32:30;;;;;;;15.50;7.43;;;5.50;82.60;;;;;;5069184;28;20183;-70
2022/12/26 00:34:56;;;;;;;9.40;7.03;;;5.50;82.70;;;;;;5071466;28;20288;-70
2022/12/26 00:37:21;;;;;;;15.07;7.93;;;5.50;82.80;;;;;;5069278;28;20269;-70
2022/12/26 00:39:47;;;;;;;14.23;8.10;;;5.50;82.90;;;;;;5069424;28;20185;-70
2022/12/26 00:42:12;;;;;;;19.17;10.00;;;5.40;82.90;;;;;;5070792;28;20214;-70
2022/12/26 00:44:38;;;;;;;24.47;10.33;;;5.40;83.10;;;;;;5072349;28;20190;-69
2022/12/26 00:47:04;;;;;;;19.80;10.40;;;5.40;82.90;;;;;;5054619;28;20214;-70
2022/12/26 00:49:29;;;;;;;18.70;11.17;;;5.40;83.10;;;;;;5072403;28;20206;-71
2022/12/26 00:51:55;;;;;;;20.17;10.40;;;5.30;82.80;;;;;;5069825;28;20209;-69
2022/12/26 00:54:21;;;;;;;17.43;9.57;;;5.30;82.70;;;;;;5073270;28;20271;-69
2022/12/26 00:56:47;;;;;;;16.10;8.80;;;5.20;82.40;;;;;;5072157;28;20232;-69
2022/12/26 00:59:12;;;;;;;17.33;8.17;;;5.20;82.80;;;;;;5068937;28;20180;-69
2022/12/26 01:01:38;;;;;;;12.43;8.30;;;5.20;82.40;;;;;;5075915;28;20221;-70
2022/12/26 01:04:04;;;;;;;17.87;9.97;;;5.20;82.80;;;;;;5070127;28;20385;-71
2022/12/26 01:06:29;;;;;;;23.47;9.93;;;5.20;82.60;;;;;;5074315;28;20182;-70
2022/12/26 01:08:55;;;;;;;17.80;9.13;;;5.10;83.20;;;;;;5074226;28;20185;-70
2022/12/26 01:11:40;;;;;;;13.60;7.83;;;5.10;83.30;;;;;;5071455;28;20264;-70
2022/12/26 01:14:11;;;;;;;14.90;8.20;;;5.10;83.10;;;;;;5070517;28;20576;-70
2022/12/26 01:16:39;;;;;;;15.57;8.20;;;5.10;82.70;;;;;;5053753;28;20183;-70
2022/12/26 01:19:05;;;;;;;17.10;8.30;;;5.00;82.60;;;;;;5071464;28;20188;-70
2022/12/26 01:21:31;;;;;;;14.53;7.80;;;5.00;83.00;;;;;;5071886;28;20216;-69
2022/12/26 01:23:57;;;;;;;12.83;7.70;;;5.00;83.10;;;;;;5070389;28;20288;-70
2022/12/26 01:26:23;;;;;;;15.63;8.07;;;5.00;83.30;;;;;;5071072;28;20297;-70
2022/12/26 01:28:50;;;;;;;15.77;8.43;;;5.00;83.20;;;;;;5071515;28;20186;-70
2022/12/26 01:31:15;;;;;;;17.13;7.37;;;5.00;83.30;;;;;;5072846;28;20765;-71
2022/12/26 01:33:41;;;;;;;10.87;7.23;;;5.00;84.20;;;;;;5053289;28;20179;-70
2022/12/26 01:36:07;;;;;;;14.70;8.73;;;5.00;84.50;;;;;;5069769;28;20203;-70
2022/12/26 01:38:33;;;;;;;9.87;7.30;;;5.00;85.00;;;;;;5071123;28;20193;-70
2022/12/26 01:43:50;;;;;;;13.87;7.23;;;4.90;84.70;;;;;;5067053;28;20209;-69
2022/12/26 01:46:18;;;;;;;13.37;7.83;;;4.90;84.60;;;;;;5070354;28;20193;-69
2022/12/26 01:48:45;;;;;;;10.20;7.40;;;4.80;84.40;;;;;;5070519;28;20178;-70
2022/12/26 01:51:12;;;;;;;20.50;7.40;;;4.80;84.60;;;;;;5069912;28;20179;-70
2022/12/26 01:53:46;;;;;;;12.37;7.60;;;4.70;84.20;;;;;;5069267;28;20182;-69
2022/12/26 01:56:16;;;;;;;11.30;6.80;;;4.70;84.00;;;;;;5072560;28;20229;-70
2022/12/26 01:58:48;;;;;;;14.70;7.17;;;4.70;83.80;;;;;;5072240;28;20217;-70
2022/12/26 02:01:14;;;;;;;15.87;7.63;;;4.60;83.70;;;;;;5071587;28;20186;-69
2022/12/26 02:06:26;;;;;;;11.70;6.77;;;4.60;83.90;;;;;;5072830;28;20211;-70
2022/12/26 02:08:52;;;;;;;13.20;7.90;;;4.60;83.90;;;;;;5069479;28;20582;-70
2022/12/26 02:11:24;;;;;;;15.37;7.50;;;4.60;84.00;;;;;;5072363;28;20175;-69
2022/12/26 02:13:51;;;;;;;12.00;7.17;;;4.60;84.00;;;;;;5071520;28;20577;-70
2022/12/26 02:16:18;;;;;;;13.50;7.40;;;4.60;84.40;;;;;;5073471;28;20215;-70
2022/12/26 02:18:44;;;;;;;16.10;8.97;;;4.60;84.80;;;;;;5072649;28;20583;-69
2022/12/26 02:21:13;;;;;;;12.87;7.23;;;4.60;84.40;;;;;;5073719;28;20191;-69
2022/12/26 02:23:53;;;;;;;11.93;7.03;;;4.60;84.30;;;;;;5054783;28;20659;-70
2022/12/26 02:26:37;;;;;;;12.90;7.20;;;4.50;84.40;;;;;;5071603;28;20810;-70
2022/12/26 02:29:21;;;;;;;12.13;8.40;;;4.50;84.80;;;;;;5068164;28;20209;-70
2022/12/26 02:31:49;;;;;;;17.43;8.03;;;4.50;84.80;;;;;;5071409;28;20175;-70
2022/12/26 02:34:41;;;;;;;10.53;7.10;;;4.50;84.90;;;;;;5072762;28;20210;-70
2022/12/26 02:37:19;;;;;;;14.40;8.17;;;4.50;84.80;;;;;;5007335;28;20192;-70
2022/12/26 02:40:18;;;;;;;13.67;7.63;;;4.50;84.80;;;;;;5010373;28;20327;-69
2022/12/26 02:43:06;;;;;;;10.30;6.07;;;4.50;84.90;;;;;;5005647;28;20240;-70
2022/12/26 02:48:59;;;;;;;10.90;6.33;;;4.40;84.70;;;;;;5011976;28;20250;-71
2022/12/26 03:17:18;;;;;;;20.30;8.93;;;4.30;84.90;;;;;;4942554;28;20234;-69
2022/12/26 03:18:24;;;;;;;16.00;8.73;;;4.20;85.10;;;;;;4943549;28;20273;-69
2022/12/26 03:20:50;;;;;;;14.73;8.83;;;4.20;85.10;;;;;;4944092;28;20917;-70
2022/12/26 03:23:19;;;;;;;16.10;8.13;;;4.20;85.20;;;;;;4943376;28;20183;-68
2022/12/26 03:28:39;;;;;;;15.07;8.47;;;4.20;85.20;;;;;;4943802;28;20205;-70
2022/12/26 03:31:08;;;;;;;14.60;7.73;;;4.20;85.30;;;;;;4942716;29;20696;-70
2022/12/26 03:36:30;;;;;;;9.20;7.00;;;4.20;85.40;;;;;;4942127;28;20238;-69
2022/12/26 04:19:22;;;;;;;20.13;8.37;;;4.20;85.50;;;;;;4942698;28;20202;-70
2022/12/26 04:20:44;;;;;;;12.80;5.67;;;4.00;86.70;;;;;;4945945;28;20228;-69
2022/12/26 04:44:13;;;;;;;7.60;5.33;;;3.80;86.20;;;;;;4942154;28;20305;-69
2022/12/26 04:46:44;;;;;;;12.50;6.53;;;3.80;86.40;;;;;;4941637;29;20870;-69
2022/12/26 04:51:59;;;;;;;12.80;5.67;;;3.90;86.30;;;;;;4942775;28;20440;-69
2022/12/26 04:54:25;;;;;;;11.43;6.03;;;3.80;86.40;;;;;;4942443;28;20255;-69
2022/12/26 04:56:51;;;;;;;11.43;6.27;;;3.80;86.50;;;;;;4942317;28;20202;-70
2022/12/26 04:59:18;;;;;;;10.40;5.63;;;3.80;86.50;;;;;;4941628;28;20274;-69
2022/12/26 05:10:21;;;;;;;8.33;5.27;;;3.70;87.30;;;;;;5013911;28;20204;-71
2022/12/26 05:12:47;;;;;;;4.60;3.83;;;3.70;87.20;;;;;;5057129;28;20205;-69
2022/12/26 05:15:13;;;;;;;12.50;5.70;;;3.60;87.30;;;;;;5070726;28;22046;-70
2022/12/26 05:28:58;;;;;;;13.00;5.20;;;3.50;86.70;;;;;;5069982;28;20308;-71
2022/12/26 05:31:24;;;;;;;12.17;5.93;;;3.50;86.70;;;;;;5075665;28;20374;-70
2022/12/26 05:34:06;;;;;;;13.17;6.40;;;3.50;86.60;;;;;;5075077;28;20189;-70
2022/12/26 05:36:40;;;;;;;6.90;5.20;;;3.50;86.80;;;;;;5050017;28;20205;-70
2022/12/26 05:39:07;;;;;;;9.30;6.17;;;3.50;86.70;;;;;;5066586;28;20644;-70
2022/12/26 05:41:33;;;;;;;9.87;6.07;;;3.50;87.00;;;;;;5072930;28;20197;-70
2022/12/26 05:43:58;;;;;;;7.73;5.73;;;3.50;86.80;;;;;;5069678;28;20582;-70
2022/12/26 05:46:24;;;;;;;10.43;6.23;;;3.40;86.90;;;;;;5072035;28;20190;-71
2022/12/26 05:48:50;;;;;;;9.87;5.50;;;3.40;86.80;;;;;;5070658;28;20609;-69
2022/12/26 05:51:16;;;;;;;11.13;6.20;;;3.40;86.90;;;;;;5072419;28;20761;-71
2022/12/26 05:53:42;;;;;;;13.60;7.17;;;3.40;86.60;;;;;;5068693;28;20194;-70
2022/12/26 05:56:11;;;;;;;11.40;6.93;;;3.30;86.70;;;;;;5074693;28;20625;-69
2022/12/26 05:58:37;;;;;;;15.33;6.63;;;3.30;86.70;;;;;;5069005;28;20179;-70
2022/12/26 06:01:09;;;;;;;9.60;6.13;;;3.30;86.80;;;;;;5069604;28;20285;-70
2022/12/26 06:03:35;;;;;;;9.83;6.83;;;3.30;86.80;;;;;;5072678;28;20267;-70
2022/12/26 06:06:01;;;;;;;7.93;6.37;;;3.30;86.80;;;;;;5073421;28;20179;-70
2022/12/26 06:08:26;;;;;;;12.23;6.43;;;3.30;86.90;;;;;;5075039;28;20721;-71
2022/12/26 06:10:52;;;;;;;7.93;6.10;;;3.30;86.80;;;;;;5068517;28;20352;-70
2022/12/26 06:13:18;;;;;;;9.30;5.43;;;3.30;86.80;;;;;;5071505;28;20179;-69
2022/12/26 06:15:43;;;;;;;13.47;8.23;;;3.40;86.90;;;;;;5072650;28;20213;-69
2022/12/26 06:18:09;;;;;;;14.93;6.70;;;3.40;87.00;;;;;;5073150;28;20210;-71
2022/12/26 06:20:38;;;;;;;13.10;6.63;;;3.40;87.10;;;;;;5072983;28;20592;-69
2022/12/26 06:23:03;;;;;;;7.13;6.33;;;3.40;87.10;;;;;;5074774;28;20228;-70
2022/12/26 06:25:29;;;;;;;12.23;6.07;;;3.40;87.30;;;;;;5077165;28;20255;-70
2022/12/26 06:27:55;;;;;;;13.03;7.13;;;3.40;87.50;;;;;;5073655;28;20989;-70
2022/12/26 06:30:20;;;;;;;10.07;7.40;;;3.40;87.80;;;;;;5074676;28;20174;-71
2022/12/26 06:32:46;;;;;;;10.83;7.83;;;3.50;87.70;;;;;;5072179;28;20696;-70
2022/12/26 06:35:12;;;;;;;11.97;7.03;;;3.60;87.90;;;;;;5077326;28;20218;-70
2022/12/26 06:37:38;;;;;;;16.17;8.50;;;3.70;88.10;;;;;;5076567;28;20651;-71
2022/12/26 06:40:04;;;;;;;13.93;7.43;;;3.80;89.20;;;;;;5074398;28;20597;-71
2022/12/26 06:42:30;;;;;;;12.07;6.83;;;4.10;90.00;;;;;;5072167;28;20660;-70
2022/12/26 06:44:56;;;;;;;9.10;6.73;;;4.40;90.60;;;;;;5073563;28;20265;-70
2022/12/26 06:47:21;;;;;;;16.47;8.27;;;4.70;91.10;;;;;;5074944;28;20261;-70
2022/12/26 06:49:47;;;;;;;11.30;7.73;;;5.00;91.40;;;;;;5073498;28;20551;-70
2022/12/26 06:52:13;;;;;;;12.57;7.80;;;5.40;91.10;;;;;;5081343;28;20178;-71
2022/12/26 06:54:39;;;;;;;13.97;8.40;;;5.70;91.00;;;;;;5072625;28;20282;-70
2022/12/26 06:57:05;;;;;;;14.10;7.63;;;6.10;90.60;;;;;;5071335;28;20195;-70
2022/12/26 06:59:31;;;;;;;12.03;7.53;;;6.50;90.00;;;;;;5077655;28;20170;-69
2022/12/26 07:01:56;;;;;;;16.77;8.10;;;6.90;89.70;;;;;;5071096;28;20186;-70
2022/12/26 07:04:22;;;;;;;13.10;8.30;;;7.20;88.60;;;;;;5076195;28;20660;-71
2022/12/26 07:06:48;;;;;;;12.40;8.77;;;7.70;88.20;;;;;;5077962;28;20222;-69
2022/12/26 07:09:16;;;;;;;16.33;9.20;;;8.00;86.90;;;;;;5075613;28;20171;-69
2022/12/26 07:11:44;;;;;;;14.93;9.07;;;8.40;86.50;;;;;;5077587;28;20183;-69
2022/12/26 07:14:11;;;;;;;20.13;10.33;;;8.80;85.40;;;;;;5073790;28;20205;-70
2022/12/26 07:16:38;;;;;;;16.77;9.93;;;9.20;83.20;;;;;;5078036;28;20190;-70
2022/12/26 07:19:05;;;;;;;15.30;9.57;;;9.50;82.40;;;;;;5077001;28;20236;-69
2022/12/26 07:21:31;;;;;;;19.77;10.98;;;9.80;81.60;;;;;;5072864;28;20253;-69
2022/12/26 07:23:56;;;;;;;19.10;11.53;;;10.10;81.60;;;;;;5075447;28;20201;-71
2022/12/26 07:26:24;;;;;;;17.27;10.65;;;10.40;79.30;;;;;;5077883;28;20675;-70
2022/12/26 07:28:54;;;;;;;18.23;10.70;;;10.70;78.90;;;;;;5072369;28;20179;-69
2022/12/26 07:31:20;;;;;;;15.73;10.38;;;11.00;77.70;;;;;;5075022;28;20209;-70
2022/12/26 07:33:53;;;;;;;21.50;10.98;;;11.20;75.10;;;;;;5074644;28;22040;-69
2022/12/26 07:36:20;;;;;;;16.85;10.90;;;11.50;76.10;;;;;;5076610;28;20305;-69
2022/12/26 07:38:46;;;;;;;14.63;11.20;;;11.80;76.40;;;;;;5073597;28;20183;-70
2022/12/26 07:43:57;;;;;;;23.23;11.95;;;12.40;73.40;;;;;;5074208;28;20705;-70
2022/12/26 07:46:23;;;;;;;18.90;11.98;;;12.70;73.30;;;;;;5071176;28;20186;-71
2022/12/26 07:48:48;;;;;;;17.85;11.02;;;13.00;73.40;;;;;;5071888;28;20175;-70
2022/12/26 07:51:15;;;;;;;20.00;11.82;;;13.30;74.30;;;;;;5075464;28;20678;-71
2022/12/26 07:53:40;;;;;;;15.25;10.65;;;13.50;72.20;;;;;;5071445;28;20821;-70
2022/12/26 07:56:06;;;;;;;18.73;11.60;;;13.80;73.10;;;;;;5075421;28;20211;-69
2022/12/26 07:58:32;;;;;;;15.05;10.13;;;14.20;71.90;;;;;;5072900;28;20235;-71
2022/12/26 08:01:01;;;;;;;16.40;11.05;;;14.50;71.00;;;;;;5076637;28;20186;-72
2022/12/26 08:03:27;;;;;;;17.42;11.50;;;14.90;71.10;;;;;;5072323;28;20560;-72
2022/12/26 08:05:53;;;;;;;15.40;10.65;;;15.20;70.40;;;;;;5080041;28;20185;-71
2022/12/26 08:08:19;;;;;;;19.65;11.20;;;15.50;70.10;;;;;;5074113;28;20182;-73
2022/12/26 08:10:44;;;;;;;15.70;11.35;;;15.80;68.60;;;;;;5078884;28;20194;-72
2022/12/26 08:13:10;;;;;;;20.63;12.80;;;16.10;67.10;;;;;;5075602;28;20663;-73
2022/12/26 08:15:39;;;;;;;20.73;12.60;;;16.20;65.90;;;;;;5075388;28;20237;-71
2022/12/26 08:18:06;;;;;;;20.92;12.68;;;16.30;65.80;;;;;;5072320;28;20195;-71
2022/12/26 08:20:32;;;;;;;18.17;11.88;;;16.40;65.60;;;;;;5073184;28;20229;-70
2022/12/26 08:22:58;;;;;;;23.63;12.45;;;16.50;64.60;;;;;;5073121;28;20708;-71
2022/12/26 08:25:23;;;;;;;19.23;12.32;;;16.40;64.60;;;;;;5071817;28;20341;-70
2022/12/26 08:27:51;;;;;;;16.35;11.50;;;16.50;63.70;;;;;;5071087;28;20734;-70
2022/12/26 08:30:17;;;;;;;18.77;11.45;;;16.60;64.00;;;;;;5071124;28;20270;-70
2022/12/26 08:32:43;;;;;;;20.80;12.32;;;16.90;65.50;;;;;;5070975;28;20191;-70
2022/12/26 08:35:08;;;;;;;13.18;10.93;;;17.40;64.60;;;;;;5072785;28;20309;-69
2022/12/26 08:37:34;;;;;;;17.15;11.57;;;17.80;64.30;;;;;;5072201;28;20273;-70
2022/12/26 08:40:00;;;;;;;17.42;12.98;;;18.20;63.00;;;;;;5069714;28;20235;-69
2022/12/26 08:42:25;;;;;;;18.17;12.65;;;18.60;62.90;;;;;;5072302;28;20201;-71
2022/12/26 08:44:51;;;;;;;16.70;13.05;;;19.00;62.10;;;;;;5067906;28;20178;-70
2022/12/26 08:47:16;;;;;;;16.83;11.95;;;19.30;61.40;;;;;;5069851;28;20272;-70
2022/12/26 08:49:42;;;;;;;19.45;12.80;;;19.50;61.30;;;;;;5074861;28;20223;-69
2022/12/26 08:52:08;;;;;;;22.15;13.43;;;19.70;60.10;;;;;;5069459;28;20229;-70
2022/12/26 08:54:34;;;;;;;20.02;14.93;;;20.00;60.50;;;;;;5071696;28;20214;-70
2022/12/26 08:56:59;;;;;;;23.30;15.35;;;20.30;60.50;;;;;;5071167;28;20198;-70
2022/12/26 08:59:25;;;;;;;22.20;15.93;;;20.60;59.80;;;;;;5068178;28;21232;-70
2022/12/26 09:01:51;;;;;;;22.27;15.93;;;20.90;59.90;;;;;;5066416;28;20213;-71
2022/12/26 09:04:16;;;;;;;28.42;18.95;;;21.30;59.60;;;;;;5070681;28;20783;-70
2022/12/26 09:06:42;;;;;;;30.88;20.88;;;21.60;58.40;;;;;;5069499;28;20186;-69
2022/12/26 09:09:10;;;;;;;31.20;21.27;;;21.80;57.80;;;;;;5070065;28;20765;-70
2022/12/26 09:11:37;;;;;;;37.10;22.83;;;22.00;58.10;;;;;;5070743;28;20970;-70
2022/12/26 09:14:03;;;;;;;43.20;24.80;;;22.20;57.00;;;;;;5070762;28;20179;-69
2022/12/26 09:16:34;;;;;;;41.13;26.13;;;22.30;56.90;;;;;;5069685;28;20743;-70
2022/12/26 09:19:01;;;;;;;48.08;28.27;;;22.50;56.90;;;;;;5071356;28;20714;-70
2022/12/26 09:21:28;;;;;;;41.83;27.52;;;22.50;56.60;;;;;;5068976;28;20183;-70
2022/12/26 09:23:59;;;;;;;41.08;25.17;;;22.60;56.60;;;;;;5071362;28;20182;-70
2022/12/26 09:26:25;;;;;;;37.60;25.00;;;22.60;56.70;;;;;;5071426;28;20183;-70
2022/12/26 09:28:51;;;;;;;38.05;24.30;;;22.60;55.10;;;;;;5070769;28;20179;-70
2022/12/26 09:31:20;;;;;;;35.15;23.13;;;22.60;55.90;;;;;;5071857;28;20555;-70
2022/12/26 09:33:46;;;;;;;34.50;23.00;;;22.50;55.70;;;;;;5071319;28;20277;-70
2022/12/26 09:36:17;;;;;;;31.83;21.60;;;22.40;56.20;;;;;;5069066;28;20966;-69
2022/12/26 09:38:44;;;;;;;32.05;21.92;;;22.20;53.40;;;;;;5065517;28;20825;-70
2022/12/26 09:41:24;;;;;;;31.30;21.45;;;22.00;54.70;;;;;;5068723;28;20268;-71
2022/12/26 09:44:15;;;;;;;37.83;22.35;;;21.70;55.50;;;;;;5068860;28;20186;-70
2022/12/26 09:47:08;;;;;;;33.47;21.50;;;21.50;55.30;;;;;;5067937;28;20193;-70
2022/12/26 09:49:42;;;;;;;35.78;22.60;;;21.50;57.40;;;;;;5029284;28;20189;-70
2022/12/26 09:52:14;;;;;;;32.00;21.42;;;21.70;53.60;;;;;;5022009;28;20203;-70
2022/12/26 09:54:49;;;;;;;29.58;21.13;;;21.80;56.20;;;;;;5030714;28;20219;-70
2022/12/26 09:57:20;;;;;;;29.73;21.13;;;21.80;56.40;;;;;;5025190;28;20189;-71
2022/12/26 09:59:56;;;;;;;31.52;21.52;;;22.00;56.10;;;;;;5030656;28;20180;-69
2022/12/26 10:02:23;;;;;;;32.03;21.55;;;22.20;55.10;;;;;;5028805;28;20213;-70
2022/12/26 10:04:50;;;;;;;27.88;19.80;;;22.40;55.50;;;;;;5018437;28;20184;-70
2022/12/26 10:07:18;;;;;;;31.35;18.70;;;22.60;55.20;;;;;;5021919;28;20193;-71
2022/12/26 10:10:01;;;;;;;25.55;18.13;;;22.80;53.80;;;;;;5020127;28;20200;-71
2022/12/26 10:12:36;;;;;;;29.02;18.70;;;22.60;54.30;;;;;;5017814;28;20222;-72
2022/12/26 10:15:13;;;;;;;24.48;17.95;;;22.60;55.30;;;;;;5028505;28;20207;-71
2022/12/26 10:17:42;;;;;;;23.95;18.23;;;22.50;53.00;;;;;;5023910;28;20187;-74
2022/12/26 10:20:13;;;;;;;24.30;17.35;;;22.30;50.00;;;;;;5021743;28;21847;-72
2022/12/26 10:22:53;;;;;;;23.35;18.30;;;22.20;53.40;;;;;;5017393;28;20271;-69
2022/12/26 10:25:41;;;;;;;23.00;16.48;;;21.90;54.60;;;;;;5024488;28;20227;-71
2022/12/26 10:28:23;;;;;;;25.35;15.70;;;21.90;53.20;;;;;;5075763;28;20704;-71
2022/12/26 10:30:52;;;;;;;18.50;14.00;;;22.00;53.00;;;;;;5068676;28;20225;-71
2022/12/26 10:33:35;;;;;;;17.60;13.88;;;22.00;54.20;;;;;;5073018;28;20174;-69
2022/12/26 10:36:01;;;;;;;19.63;14.13;;;22.00;54.90;;;;;;5030254;28;1213341;-70
2022/12/26 10:38:51;;;;;;;16.02;13.30;;;22.30;55.40;;;;;;5077385;28;20166;-72
2022/12/26 10:41:30;;;;;;;20.83;13.93;;;22.50;54.60;;;;;;5078426;28;20186;-72
2022/12/26 10:43:55;;;;;;;15.30;11.63;;;22.80;55.30;;;;;;5073873;28;20309;-71
2022/12/26 10:46:58;;;;;;;18.17;13.10;;;22.90;52.50;;;;;;5076787;28;21104;-73
2022/12/26 10:49:26;;;;;;;16.50;12.10;;;23.10;54.00;;;;;;5076937;28;20178;-71
2022/12/26 10:51:55;;;;;;;14.95;11.38;;;23.40;54.00;;;;;;5078027;28;20186;-70
2022/12/26 10:54:21;;;;;;;16.17;12.85;;;23.70;54.40;;;;;;5077684;28;20182;-70
2022/12/26 10:56:49;;;;;;;18.50;13.02;;;24.00;53.00;;;;;;5077037;28;20183;-68
2022/12/26 10:59:19;;;;;;;16.88;13.27;;;24.20;53.60;;;;;;5077919;28;20633;-68
2022/12/26 11:01:47;;;;;;;15.60;12.05;;;24.40;50.90;;;;;;5074015;28;20202;-68
2022/12/26 11:04:21;;;;;;;15.57;12.13;;;24.60;52.80;;;;;;5074151;28;20186;-68
2022/12/26 11:06:51;;;;;;;16.90;12.75;;;24.60;49.90;;;;;;5075395;28;20540;-68
2022/12/26 11:09:41;;;;;;;16.70;12.40;;;24.50;49.50;;;;;;5072275;28;20240;-69
2022/12/26 11:12:20;;;;;;;17.58;11.57;;;24.50;53.60;;;;;;5076322;28;20182;-68
2022/12/26 11:14:46;;;;;;;13.55;11.27;;;24.70;52.20;;;;;;5076763;28;20234;-68
2022/12/26 11:17:27;;;;;;;13.25;11.43;;;24.70;52.00;;;;;;5071176;28;20260;-69
2022/12/26 11:20:14;;;;;;;9.82;8.95;;;24.80;52.30;;;;;;5075050;28;20178;-69
2022/12/26 11:22:41;;;;;;;10.25;8.93;;;24.80;50.30;;;;;;5077053;28;20593;-68
2022/12/26 11:25:06;;;;;;;11.98;9.05;;;24.40;52.30;;;;;;5072057;28;20182;-69
2022/12/26 11:27:34;;;;;;;8.52;6.63;;;24.20;51.20;;;;;;5076150;28;20186;-69
2022/12/26 11:30:16;;;;;;;10.32;8.57;;;24.00;53.10;;;;;;5066946;28;20300;-70
2022/12/26 11:32:48;;;;;;;9.95;7.32;;;23.90;49.80;;;;;;5074919;28;20174;-71
2022/12/26 11:35:33;;;;;;;8.35;7.43;;;23.90;51.10;;;;;;5074350;28;20332;-70
2022/12/26 11:38:00;;;;;;;7.82;7.05;;;23.80;53.70;;;;;;5077217;28;20178;-69
2022/12/26 11:40:35;;;;;;;7.20;6.47;;;23.80;51.80;;;;;;5072823;28;20250;-69
2022/12/26 11:43:04;;;;;;;9.48;6.90;;;23.90;52.10;;;;;;5078335;28;20189;-70
2022/12/26 11:45:35;;;;;;;8.48;7.43;;;24.00;52.40;;;;;;5072431;28;20183;-68
2022/12/26 11:48:01;;;;;;;8.07;7.00;;;23.90;52.50;;;;;;5071728;28;20649;-69
2022/12/26 11:50:28;;;;;;;8.98;7.15;;;24.10;52.20;;;;;;5073488;28;20175;-69
2022/12/26 11:52:54;;;;;;;8.32;7.40;;;24.10;52.30;;;;;;5073088;28;20197;-69
2022/12/26 11:55:23;;;;;;;8.55;7.70;;;24.20;51.60;;;;;;5073243;28;20802;-69
2022/12/26 11:58:07;;;;;;;10.85;7.95;;;24.40;52.80;;;;;;5073155;28;20193;-69
2022/12/26 12:00:58;;;;;;;8.68;6.50;;;24.40;49.90;;;;;;5071838;28;20188;-70
2022/12/26 12:03:43;;;;;;;9.07;7.18;;;24.60;52.00;;;;;;5026570;28;20255;-69
2022/12/26 12:06:30;;;;;;;9.02;7.00;;;24.60;52.30;;;;;;5022610;28;20184;-70
2022/12/26 12:09:20;;;;;;;7.00;6.45;;;24.50;47.30;;;;;;5025489;28;20204;-70
2022/12/26 12:12:17;;;;;;;12.95;6.43;;;24.50;50.50;;;;;;5024015;28;20333;-69
2022/12/26 12:15:08;;;;;;;6.38;5.80;;;24.60;49.70;;;;;;5024423;28;20241;-68
2022/12/26 12:17:58;;;;;;;7.22;6.63;;;24.10;50.20;;;;;;5028859;28;20202;-69
2022/12/26 12:20:40;;;;;;;7.28;6.63;;;24.10;50.60;;;;;;5021203;28;20291;-69
2022/12/26 12:23:42;;;;;;;8.90;7.22;;;24.00;48.90;;;;;;5025583;28;20187;-69
2022/12/26 12:26:10;;;;;;;8.63;6.95;;;23.90;50.40;;;;;;5027533;28;20179;-68
2022/12/26 12:29:07;;;;;;;9.65;7.50;;;23.90;49.00;;;;;;5023290;28;20254;-71
2022/12/26 12:31:41;;;;;;;7.28;6.68;;;23.90;48.00;;;;;;5027410;28;20234;-69
2022/12/26 12:34:21;;;;;;;11.43;7.55;;;24.00;50.30;;;;;;5028976;28;20241;-68
2022/12/26 12:37:15;;;;;;;8.00;7.30;;;24.00;47.80;;;;;;5024084;28;20215;-68
2022/12/26 12:40:06;;;;;;;7.97;6.80;;;24.00;48.70;;;;;;5034612;28;20187;-69
2022/12/26 12:42:32;;;;;;;7.50;6.78;;;23.90;47.40;;;;;;5073660;28;20252;-69
2022/12/26 12:45:25;;;;;;;7.22;6.60;;;23.80;49.60;;;;;;5071926;28;20591;-69
2022/12/26 12:48:22;;;;;;;8.38;6.50;;;23.60;47.90;;;;;;5074458;28;20201;-69
2022/12/26 12:51:04;;;;;;;8.90;6.38;;;23.40;47.80;;;;;;5074712;28;20224;-69
2022/12/26 12:53:45;;;;;;;6.63;6.03;;;23.20;48.60;;;;;;5073797;28;20174;-69
2022/12/26 12:56:29;;;;;;;6.90;6.22;;;23.10;48.10;;;;;;5069485;28;20708;-69
2022/12/26 12:59:30;;;;;;;6.80;6.10;;;23.00;49.00;;;;;;5071851;28;20193;-70
2022/12/26 13:01:59;;;;;;;6.18;5.35;;;22.90;48.60;;;;;;5071039;28;20174;-69
2022/12/26 13:04:39;;;;;;;7.32;5.55;;;22.80;48.30;;;;;;5073625;28;20660;-72
2022/12/26 13:07:22;;;;;;;6.07;5.28;;;22.60;48.30;;;;;;5067821;28;20239;-69
2022/12/26 13:09:59;;;;;;;5.55;5.15;;;22.40;50.30;;;;;;5072138;28;20258;-72
2022/12/26 13:12:33;;;;;;;4.88;4.57;;;22.00;51.10;;;;;;5069161;28;20186;-70
2022/12/26 13:15:22;;;;;;;10.98;5.25;;;21.80;50.20;;;;;;5069527;28;20291;-70
2022/12/26 13:17:55;;;;;;;5.30;4.45;;;21.40;50.20;;;;;;5070522;28;20189;-69
2022/12/26 13:20:29;;;;;;;6.32;4.45;;;21.20;53.90;;;;;;5068963;28;20205;-68
2022/12/26 13:26:01;;;;;;;4.00;3.70;;;20.70;53.10;;;;;;5065807;28;20189;-69
2022/12/26 13:28:31;;;;;;;7.18;3.72;;;20.40;53.50;;;;;;5070903;28;20213;-69
2022/12/26 13:30:57;;;;;;;4.65;3.50;;;20.10;52.80;;;;;;5074789;28;20178;-70
2022/12/26 13:33:23;;;;;;;4.45;4.07;;;19.90;53.00;;;;;;5076657;28;20197;-70
2022/12/26 13:35:58;;;;;;;3.72;3.42;;;19.70;55.20;;;;;;5067895;28;20237;-70
2022/12/26 13:38:45;;;;;;;4.03;3.53;;;19.50;55.80;;;;;;5069760;28;20178;-69
2022/12/26 13:44:04;;;;;;;2.75;2.55;;;19.30;54.60;;;;;;5068773;28;20235;-70
2022/12/26 13:46:43;;;;;;;2.50;2.30;;;19.10;53.70;;;;;;5074964;28;20186;-70
2022/12/26 13:49:34;;;;;;;2.40;2.25;;;18.90;55.10;;;;;;5068869;28;20175;-70
2022/12/26 13:52:09;;;;;;;8.98;3.15;;;18.70;55.60;;;;;;5070593;28;20178;-72
2022/12/26 13:54:56;;;;;;;3.30;3.00;;;18.50;54.70;;;;;;5073292;28;20186;-69
2022/12/26 13:57:43;;;;;;;3.00;2.80;;;18.30;55.40;;;;;;5070710;28;20191;-70
2022/12/26 14:00:43;;;;;;;3.00;2.80;;;18.10;55.80;;;;;;5050337;28;20208;-74
2022/12/26 14:03:32;;;;;;;3.53;2.17;;;17.70;56.40;;;;;;5070780;28;20279;-72
2022/12/26 14:06:15;;;;;;;2.60;2.15;;;17.40;56.80;;;;;;5068573;28;20190;-72
2022/12/26 14:09:03;;;;;;;2.92;2.00;;;17.20;56.40;;;;;;5071295;28;20566;-72
2022/12/26 14:11:44;;;;;;;1.92;1.85;;;17.00;56.70;;;;;;5071974;28;20179;-73
2022/12/26 14:14:25;;;;;;;2.00;1.75;;;16.90;57.60;;;;;;5067066;28;20183;-72
2022/12/26 14:16:56;;;;;;;2.30;2.10;;;16.80;57.90;;;;;;5070672;28;20576;-71
2022/12/26 14:19:34;;;;;;;2.03;1.88;;;16.60;58.00;;;;;;5072036;28;20220;-71
2022/12/26 14:22:07;;;;;;;2.63;2.13;;;16.40;57.30;;;;;;5074318;28;20291;-70
2022/12/26 14:24:54;;;;;;;4.68;2.58;;;16.20;57.90;;;;;;5072912;28;20273;-70
2022/12/26 14:27:43;;;;;;;8.60;2.30;;;15.80;58.70;;;;;;5069421;28;20179;-71
2022/12/26 14:30:32;;;;;;;3.58;2.10;;;15.60;58.90;;;;;;5048456;28;20249;-71
2022/12/26 14:33:13;;;;;;;4.00;2.22;;;15.30;59.60;;;;;;5073612;28;20659;-70
2022/12/26 14:36:01;;;;;;;2.60;2.25;;;15.20;59.60;;;;;;5069298;28;20221;-70
2022/12/26 14:38:27;;;;;;;3.75;2.50;;;15.10;60.20;;;;;;5072379;28;20183;-70
2022/12/26 14:44:09;;;;;;;5.63;4.20;;;15.00;60.30;;;;;;5073243;28;20236;-70
2022/12/26 14:46:37;;;;;;;6.03;4.57;;;14.70;60.60;;;;;;5070241;28;20225;-70
2022/12/26 14:49:29;;;;;;;9.07;5.80;;;14.40;60.60;;;;;;5075300;28;20183;-70
2022/12/26 14:52:14;;;;;;;8.52;5.18;;;14.20;61.90;;;;;;5074248;28;20611;-72
2022/12/26 14:54:45;;;;;;;5.07;4.60;;;14.00;62.00;;;;;;5075954;28;20604;-70
2022/12/26 14:57:41;;;;;;;6.50;4.25;;;13.80;62.40;;;;;;5073939;28;20178;-70
2022/12/26 15:00:22;;;;;;;6.88;4.88;;;13.50;62.70;;;;;;5076183;28;20204;-70
2022/12/26 15:03:11;;;;;;;9.10;6.38;;;13.30;63.00;;;;;;5073786;28;20332;-70
2022/12/26 15:05:39;;;;;;;9.57;6.10;;;13.10;62.90;;;;;;4999715;28;20362;-71
2022/12/26 15:08:37;;;;;;;6.25;5.20;;;12.90;63.70;;;;;;5012797;28;20618;-70
2022/12/26 15:11:21;;;;;;;5.50;4.40;;;12.80;64.10;;;;;;4942650;29;20195;-71
2022/12/26 15:14:05;;;;;;;9.48;5.45;;;12.60;64.20;;;;;;4938833;28;20203;-70
2022/12/26 15:16:58;;;;;;;7.78;4.78;;;12.40;64.30;;;;;;4939043;28;20275;-71
2022/12/26 15:20:02;;;;;;;7.55;4.95;;;12.30;64.50;;;;;;4939707;28;20187;-71